aviador You're here:

KJAN Decoded Metar

JACKSON in MS, USA
Report Time2017-08-19 10:54:00
UTC Time2017-08-19 11:12:05
Flight Rules vfr VFR
WindCalm
Visibility9999 m
Phenomena:N/A
Clouds:N/A
Expected CloudBase > 400 ft AGL from Temp-Dew spread
CeilingNone
Temp24°C (ISA +10)
Dew Point23°C (94% RH)
QNH1016 hPa
Density Alt1,680 ft
Elevation299 ft
Report Wrong Elevation
Raw Report
KJAN 191054Z 00000KT 10SM CLR 24/23 A2999 RMK AO2 SLP151
T02440233=

Extra information for KJAN:More info

Metar Taf Metar & Taf Last 4 Metars F.Rules Stats Wind Profile Meteogram Temp Stats Airport Information Weather charts Add Link Nearby VenuesMetar ALERT Operation Metar Decoded Social comments

AIRNAV info for KJAN